sensor_id;sensor_type;location;lat;lon;timestamp;P1;durP1;ratioP1;P2;durP2;ratioP2
12383;SDS011;6256;63.808;20.336;2023-06-10T00:01:51;1.10;;;0.87;;
12383;SDS011;6256;63.808;20.336;2023-06-10T00:04:20;1.27;;;0.93;;
12383;SDS011;6256;63.808;20.336;2023-06-10T00:06:46;2.07;;;0.90;;
12383;SDS011;6256;63.808;20.336;2023-06-10T00:09:14;3.07;;;1.00;;
12383;SDS011;6256;63.808;20.336;2023-06-10T00:11:40;1.10;;;1.00;;
12383;SDS011;6256;63.808;20.336;2023-06-10T00:14:07;0.93;;;0.93;;
12383;SDS011;6256;63.808;20.336;2023-06-10T00:16:33;1.60;;;1.00;;
12383;SDS011;6256;63.808;20.336;2023-06-10T00:18:59;0.70;;;0.70;;
12383;SDS011;6256;63.808;20.336;2023-06-10T00:21:33;1.00;;;0.90;;
12383;SDS011;6256;63.808;20.336;2023-06-10T00:24:09;1.80;;;0.90;;
12383;SDS011;6256;63.808;20.336;2023-06-10T00:26:37;0.70;;;0.70;;
12383;SDS011;6256;63.808;20.336;2023-06-10T00:29:03;0.90;;;0.90;;
12383;SDS011;6256;63.808;20.336;2023-06-10T00:31:29;0.70;;;0.70;;
12383;SDS011;6256;63.808;20.336;2023-06-10T00:33:55;1.50;;;0.77;;
12383;SDS011;6256;63.808;20.336;2023-06-10T00:36:21;0.80;;;0.80;;
12383;SDS011;6256;63.808;20.336;2023-06-10T00:38:46;1.33;;;1.07;;
12383;SDS011;6256;63.808;20.336;2023-06-10T00:41:12;0.90;;;0.90;;
12383;SDS011;6256;63.808;20.336;2023-06-10T00:43:39;1.33;;;0.90;;
12383;SDS011;6256;63.808;20.336;2023-06-10T00:46:05;0.93;;;0.93;;
12383;SDS011;6256;63.808;20.336;2023-06-10T00:48:32;2.53;;;1.43;;
12383;SDS011;6256;63.808;20.336;2023-06-10T00:50:57;1.00;;;1.00;;
12383;SDS011;6256;63.808;20.336;2023-06-10T00:53:24;1.30;;;0.83;;
12383;SDS011;6256;63.808;20.336;2023-06-10T00:55:51;0.80;;;0.80;;
12383;SDS011;6256;63.808;20.336;2023-06-10T00:58:17;0.70;;;0.70;;
12383;SDS011;6256;63.808;20.336;2023-06-10T01:00:43;0.87;;;0.80;;
12383;SDS011;6256;63.808;20.336;2023-06-10T01:03:10;1.10;;;1.00;;
12383;SDS011;6256;63.808;20.336;2023-06-10T01:05:37;1.00;;;0.90;;
12383;SDS011;6256;63.808;20.336;2023-06-10T01:08:14;0.67;;;0.67;;
12383;SDS011;6256;63.808;20.336;2023-06-10T01:11:13;0.60;;;0.60;;
12383;SDS011;6256;63.808;20.336;2023-06-10T01:13:40;0.83;;;0.83;;
12383;SDS011;6256;63.808;20.336;2023-06-10T01:16:06;1.53;;;0.83;;
12383;SDS011;6256;63.808;20.336;2023-06-10T01:18:33;3.90;;;0.70;;
12383;SDS011;6256;63.808;20.336;2023-06-10T01:20:59;0.80;;;0.80;;
12383;SDS011;6256;63.808;20.336;2023-06-10T01:23:25;0.87;;;0.87;;
12383;SDS011;6256;63.808;20.336;2023-06-10T01:25:59;2.00;;;0.90;;
12383;SDS011;6256;63.808;20.336;2023-06-10T01:28:39;0.80;;;0.80;;
12383;SDS011;6256;63.808;20.336;2023-06-10T01:34:07;1.40;;;0.90;;
12383;SDS011;6256;63.808;20.336;2023-06-10T01:36:36;0.73;;;0.73;;
12383;SDS011;6256;63.808;20.336;2023-06-10T01:39:03;0.90;;;0.90;;
12383;SDS011;6256;63.808;20.336;2023-06-10T01:41:31;0.80;;;0.80;;
12383;SDS011;6256;63.808;20.336;2023-06-10T01:43:57;1.10;;;0.97;;
12383;SDS011;6256;63.808;20.336;2023-06-10T01:46:26;1.17;;;0.73;;
12383;SDS011;6256;63.808;20.336;2023-06-10T01:48:51;1.07;;;0.80;;
12383;SDS011;6256;63.808;20.336;2023-06-10T01:51:17;2.17;;;1.00;;
12383;SDS011;6256;63.808;20.336;2023-06-10T01:53:43;1.03;;;1.00;;
12383;SDS011;6256;63.808;20.336;2023-06-10T01:56:09;1.63;;;1.00;;
12383;SDS011;6256;63.808;20.336;2023-06-10T01:58:34;2.07;;;1.13;;
12383;SDS011;6256;63.808;20.336;2023-06-10T02:01:00;0.90;;;0.90;;
12383;SDS011;6256;63.808;20.336;2023-06-10T02:03:26;1.53;;;0.70;;
12383;SDS011;6256;63.808;20.336;2023-06-10T02:05:52;0.77;;;0.77;;
12383;SDS011;6256;63.808;20.336;2023-06-10T02:08:18;2.30;;;0.97;;
12383;SDS011;6256;63.808;20.336;2023-06-10T02:10:43;1.00;;;1.00;;
12383;SDS011;6256;63.808;20.336;2023-06-10T02:13:09;1.17;;;0.80;;
12383;SDS011;6256;63.808;20.336;2023-06-10T02:15:35;1.30;;;0.93;;
12383;SDS011;6256;63.808;20.336;2023-06-10T02:18:00;1.60;;;1.23;;
12383;SDS011;6256;63.808;20.336;2023-06-10T02:20:27;1.07;;;0.97;;
12383;SDS011;6256;63.808;20.336;2023-06-10T02:22:53;0.70;;;0.70;;
12383;SDS011;6256;63.808;20.336;2023-06-10T02:25:19;1.13;;;0.97;;
12383;SDS011;6256;63.808;20.336;2023-06-10T02:27:45;0.77;;;0.73;;
12383;SDS011;6256;63.808;20.336;2023-06-10T02:30:10;0.73;;;0.73;;
12383;SDS011;6256;63.808;20.336;2023-06-10T02:32:39;1.13;;;1.03;;
12383;SDS011;6256;63.808;20.336;2023-06-10T02:35:04;1.17;;;0.90;;
12383;SDS011;6256;63.808;20.336;2023-06-10T02:37:30;2.07;;;1.00;;
12383;SDS011;6256;63.808;20.336;2023-06-10T02:39:56;0.70;;;0.70;;
12383;SDS011;6256;63.808;20.336;2023-06-10T02:42:22;1.20;;;1.10;;
12383;SDS011;6256;63.808;20.336;2023-06-10T02:44:47;1.27;;;1.17;;
12383;SDS011;6256;63.808;20.336;2023-06-10T02:47:13;1.30;;;1.10;;
12383;SDS011;6256;63.808;20.336;2023-06-10T02:49:39;1.47;;;1.00;;
12383;SDS011;6256;63.808;20.336;2023-06-10T02:52:05;1.30;;;1.20;;
12383;SDS011;6256;63.808;20.336;2023-06-10T02:54:32;2.40;;;1.00;;
12383;SDS011;6256;63.808;20.336;2023-06-10T02:56:57;1.60;;;1.10;;
12383;SDS011;6256;63.808;20.336;2023-06-10T02:59:26;2.77;;;1.10;;
12383;SDS011;6256;63.808;20.336;2023-06-10T03:01:53;2.13;;;1.07;;
12383;SDS011;6256;63.808;20.336;2023-06-10T03:04:19;0.90;;;0.90;;
12383;SDS011;6256;63.808;20.336;2023-06-10T03:06:45;0.87;;;0.87;;
12383;SDS011;6256;63.808;20.336;2023-06-10T03:09:12;0.97;;;0.93;;
12383;SDS011;6256;63.808;20.336;2023-06-10T03:11:38;1.13;;;1.03;;
12383;SDS011;6256;63.808;20.336;2023-06-10T03:14:04;0.87;;;0.87;;
12383;SDS011;6256;63.808;20.336;2023-06-10T03:16:30;0.90;;;0.90;;
12383;SDS011;6256;63.808;20.336;2023-06-10T03:18:56;0.93;;;0.93;;
12383;SDS011;6256;63.808;20.336;2023-06-10T03:21:22;0.90;;;0.90;;
12383;SDS011;6256;63.808;20.336;2023-06-10T03:23:48;1.03;;;0.87;;
12383;SDS011;6256;63.808;20.336;2023-06-10T03:26:13;0.87;;;0.87;;
12383;SDS011;6256;63.808;20.336;2023-06-10T03:28:40;1.10;;;1.00;;
12383;SDS011;6256;63.808;20.336;2023-06-10T03:31:06;1.73;;;1.03;;
12383;SDS011;6256;63.808;20.336;2023-06-10T03:33:32;0.97;;;0.97;;
12383;SDS011;6256;63.808;20.336;2023-06-10T03:35:58;0.90;;;0.87;;
12383;SDS011;6256;63.808;20.336;2023-06-10T03:38:24;1.17;;;0.93;;
12383;SDS011;6256;63.808;20.336;2023-06-10T03:40:49;3.30;;;1.10;;
12383;SDS011;6256;63.808;20.336;2023-06-10T03:43:15;0.97;;;0.97;;
12383;SDS011;6256;63.808;20.336;2023-06-10T03:45:41;1.20;;;1.10;;
12383;SDS011;6256;63.808;20.336;2023-06-10T03:48:06;0.80;;;0.80;;
12383;SDS011;6256;63.808;20.336;2023-06-10T03:50:33;1.23;;;1.10;;
12383;SDS011;6256;63.808;20.336;2023-06-10T03:52:59;1.60;;;1.33;;
12383;SDS011;6256;63.808;20.336;2023-06-10T03:55:25;1.30;;;1.10;;
12383;SDS011;6256;63.808;20.336;2023-06-10T03:57:51;2.57;;;1.20;;
12383;SDS011;6256;63.808;20.336;2023-06-10T04:00:16;0.90;;;0.90;;
12383;SDS011;6256;63.808;20.336;2023-06-10T04:02:43;0.93;;;0.83;;
12383;SDS011;6256;63.808;20.336;2023-06-10T04:05:15;0.90;;;0.90;;
12383;SDS011;6256;63.808;20.336;2023-06-10T04:07:41;0.70;;;0.70;;
12383;SDS011;6256;63.808;20.336;2023-06-10T04:10:08;0.73;;;0.70;;
12383;SDS011;6256;63.808;20.336;2023-06-10T04:12:35;1.30;;;0.87;;
12383;SDS011;6256;63.808;20.336;2023-06-10T04:15:01;1.20;;;0.90;;
12383;SDS011;6256;63.808;20.336;2023-06-10T04:17:27;0.80;;;0.80;;
12383;SDS011;6256;63.808;20.336;2023-06-10T04:19:53;0.70;;;0.70;;
12383;SDS011;6256;63.808;20.336;2023-06-10T04:22:19;0.70;;;0.70;;
12383;SDS011;6256;63.808;20.336;2023-06-10T04:24:45;0.90;;;0.90;;
12383;SDS011;6256;63.808;20.336;2023-06-10T04:27:11;0.90;;;0.80;;
12383;SDS011;6256;63.808;20.336;2023-06-10T04:29:37;0.80;;;0.80;;
12383;SDS011;6256;63.808;20.336;2023-06-10T04:32:02;0.70;;;0.70;;
12383;SDS011;6256;63.808;20.336;2023-06-10T04:34:30;0.70;;;0.70;;
12383;SDS011;6256;63.808;20.336;2023-06-10T04:36:56;0.60;;;0.60;;
12383;SDS011;6256;63.808;20.336;2023-06-10T04:39:21;0.60;;;0.60;;
12383;SDS011;6256;63.808;20.336;2023-06-10T04:41:47;0.90;;;0.67;;
12383;SDS011;6256;63.808;20.336;2023-06-10T04:44:13;0.63;;;0.60;;
12383;SDS011;6256;63.808;20.336;2023-06-10T04:46:39;0.60;;;0.60;;
12383;SDS011;6256;63.808;20.336;2023-06-10T04:49:04;0.50;;;0.50;;
12383;SDS011;6256;63.808;20.336;2023-06-10T04:51:31;0.87;;;0.60;;
12383;SDS011;6256;63.808;20.336;2023-06-10T04:53:59;0.67;;;0.60;;
12383;SDS011;6256;63.808;20.336;2023-06-10T04:56:29;0.67;;;0.67;;
12383;SDS011;6256;63.808;20.336;2023-06-10T04:58:56;0.70;;;0.70;;
12383;SDS011;6256;63.808;20.336;2023-06-10T05:01:22;0.60;;;0.60;;
12383;SDS011;6256;63.808;20.336;2023-06-10T05:03:47;0.70;;;0.60;;
12383;SDS011;6256;63.808;20.336;2023-06-10T05:06:13;0.40;;;0.40;;
12383;SDS011;6256;63.808;20.336;2023-06-10T05:08:39;0.50;;;0.50;;
12383;SDS011;6256;63.808;20.336;2023-06-10T05:11:05;0.63;;;0.57;;
12383;SDS011;6256;63.808;20.336;2023-06-10T05:13:31;0.80;;;0.53;;
12383;SDS011;6256;63.808;20.336;2023-06-10T05:15:57;0.90;;;0.67;;
12383;SDS011;6256;63.808;20.336;2023-06-10T05:18:23;0.50;;;0.50;;
12383;SDS011;6256;63.808;20.336;2023-06-10T05:20:49;0.93;;;0.50;;
12383;SDS011;6256;63.808;20.336;2023-06-10T05:23:16;0.70;;;0.70;;
12383;SDS011;6256;63.808;20.336;2023-06-10T05:25:41;0.70;;;0.70;;
12383;SDS011;6256;63.808;20.336;2023-06-10T05:28:07;0.63;;;0.60;;
12383;SDS011;6256;63.808;20.336;2023-06-10T05:30:36;0.83;;;0.57;;
12383;SDS011;6256;63.808;20.336;2023-06-10T05:33:02;0.50;;;0.50;;
12383;SDS011;6256;63.808;20.336;2023-06-10T05:35:29;0.50;;;0.50;;
12383;SDS011;6256;63.808;20.336;2023-06-10T05:37:55;0.57;;;0.57;;
12383;SDS011;6256;63.808;20.336;2023-06-10T05:40:20;0.40;;;0.40;;
12383;SDS011;6256;63.808;20.336;2023-06-10T05:42:46;0.50;;;0.50;;
12383;SDS011;6256;63.808;20.336;2023-06-10T05:45:12;0.70;;;0.60;;
12383;SDS011;6256;63.808;20.336;2023-06-10T05:47:38;0.57;;;0.57;;
12383;SDS011;6256;63.808;20.336;2023-06-10T05:50:04;0.67;;;0.57;;
12383;SDS011;6256;63.808;20.336;2023-06-10T05:52:34;0.87;;;0.50;;
12383;SDS011;6256;63.808;20.336;2023-06-10T05:55:01;0.60;;;0.60;;
12383;SDS011;6256;63.808;20.336;2023-06-10T05:57:27;0.50;;;0.50;;
12383;SDS011;6256;63.808;20.336;2023-06-10T05:59:53;0.50;;;0.50;;
12383;SDS011;6256;63.808;20.336;2023-06-10T06:02:19;0.50;;;0.50;;
12383;SDS011;6256;63.808;20.336;2023-06-10T06:04:45;1.37;;;0.90;;
12383;SDS011;6256;63.808;20.336;2023-06-10T06:07:10;1.63;;;0.80;;
12383;SDS011;6256;63.808;20.336;2023-06-10T06:09:36;0.80;;;0.80;;
12383;SDS011;6256;63.808;20.336;2023-06-10T06:12:02;0.93;;;0.77;;
12383;SDS011;6256;63.808;20.336;2023-06-10T06:14:30;1.00;;;0.80;;
12383;SDS011;6256;63.808;20.336;2023-06-10T06:16:57;2.67;;;0.87;;
12383;SDS011;6256;63.808;20.336;2023-06-10T06:19:22;0.77;;;0.77;;
12383;SDS011;6256;63.808;20.336;2023-06-10T06:21:48;2.50;;;0.80;;
12383;SDS011;6256;63.808;20.336;2023-06-10T06:24:15;0.90;;;0.70;;
12383;SDS011;6256;63.808;20.336;2023-06-10T06:26:41;0.63;;;0.63;;
12383;SDS011;6256;63.808;20.336;2023-06-10T06:29:07;1.37;;;0.80;;
12383;SDS011;6256;63.808;20.336;2023-06-10T06:31:32;1.00;;;0.80;;
12383;SDS011;6256;63.808;20.336;2023-06-10T06:33:58;1.57;;;1.00;;
12383;SDS011;6256;63.808;20.336;2023-06-10T06:36:24;1.40;;;0.70;;
12383;SDS011;6256;63.808;20.336;2023-06-10T06:38:50;1.10;;;0.67;;
12383;SDS011;6256;63.808;20.336;2023-06-10T06:41:16;2.57;;;0.97;;
12383;SDS011;6256;63.808;20.336;2023-06-10T06:43:41;0.80;;;0.80;;
12383;SDS011;6256;63.808;20.336;2023-06-10T06:46:08;0.70;;;0.70;;
12383;SDS011;6256;63.808;20.336;2023-06-10T06:48:34;1.13;;;0.63;;
12383;SDS011;6256;63.808;20.336;2023-06-10T06:50:59;0.60;;;0.60;;
12383;SDS011;6256;63.808;20.336;2023-06-10T06:53:25;0.60;;;0.60;;
12383;SDS011;6256;63.808;20.336;2023-06-10T06:55:51;0.80;;;0.70;;
12383;SDS011;6256;63.808;20.336;2023-06-10T06:58:16;0.50;;;0.50;;
12383;SDS011;6256;63.808;20.336;2023-06-10T07:00:42;0.70;;;0.70;;
12383;SDS011;6256;63.808;20.336;2023-06-10T07:03:08;0.60;;;0.60;;
12383;SDS011;6256;63.808;20.336;2023-06-10T07:05:34;0.50;;;0.50;;
12383;SDS011;6256;63.808;20.336;2023-06-10T07:07:59;0.60;;;0.60;;
12383;SDS011;6256;63.808;20.336;2023-06-10T07:10:25;0.50;;;0.50;;
12383;SDS011;6256;63.808;20.336;2023-06-10T07:12:52;0.90;;;0.80;;
12383;SDS011;6256;63.808;20.336;2023-06-10T07:15:18;0.50;;;0.50;;
12383;SDS011;6256;63.808;20.336;2023-06-10T07:17:43;0.80;;;0.80;;
12383;SDS011;6256;63.808;20.336;2023-06-10T07:20:10;0.67;;;0.60;;
12383;SDS011;6256;63.808;20.336;2023-06-10T07:22:36;0.60;;;0.60;;
12383;SDS011;6256;63.808;20.336;2023-06-10T07:25:04;0.60;;;0.60;;
12383;SDS011;6256;63.808;20.336;2023-06-10T07:27:30;1.17;;;0.70;;
12383;SDS011;6256;63.808;20.336;2023-06-10T07:29:55;0.80;;;0.70;;
12383;SDS011;6256;63.808;20.336;2023-06-10T07:32:21;0.60;;;0.50;;
12383;SDS011;6256;63.808;20.336;2023-06-10T07:34:48;0.57;;;0.57;;
12383;SDS011;6256;63.808;20.336;2023-06-10T07:37:15;0.40;;;0.40;;
12383;SDS011;6256;63.808;20.336;2023-06-10T07:39:41;0.83;;;0.70;;
12383;SDS011;6256;63.808;20.336;2023-06-10T07:42:08;0.60;;;0.60;;
12383;SDS011;6256;63.808;20.336;2023-06-10T07:44:33;0.83;;;0.60;;
12383;SDS011;6256;63.808;20.336;2023-06-10T07:46:59;1.13;;;0.50;;
12383;SDS011;6256;63.808;20.336;2023-06-10T07:49:25;0.43;;;0.43;;
12383;SDS011;6256;63.808;20.336;2023-06-10T07:51:53;0.60;;;0.60;;
12383;SDS011;6256;63.808;20.336;2023-06-10T07:54:20;0.80;;;0.63;;
12383;SDS011;6256;63.808;20.336;2023-06-10T07:56:46;0.50;;;0.50;;
12383;SDS011;6256;63.808;20.336;2023-06-10T07:59:13;0.57;;;0.40;;
12383;SDS011;6256;63.808;20.336;2023-06-10T08:01:39;0.53;;;0.50;;
12383;SDS011;6256;63.808;20.336;2023-06-10T08:04:05;0.60;;;0.60;;
12383;SDS011;6256;63.808;20.336;2023-06-10T08:06:31;0.70;;;0.60;;
12383;SDS011;6256;63.808;20.336;2023-06-10T08:08:57;0.70;;;0.70;;
12383;SDS011;6256;63.808;20.336;2023-06-10T08:11:23;0.50;;;0.50;;
12383;SDS011;6256;63.808;20.336;2023-06-10T08:13:49;0.90;;;0.70;;
12383;SDS011;6256;63.808;20.336;2023-06-10T08:16:14;1.03;;;0.60;;
12383;SDS011;6256;63.808;20.336;2023-06-10T08:18:41;2.80;;;0.80;;
12383;SDS011;6256;63.808;20.336;2023-06-10T08:21:07;0.60;;;0.60;;
12383;SDS011;6256;63.808;20.336;2023-06-10T08:23:32;1.17;;;0.70;;
12383;SDS011;6256;63.808;20.336;2023-06-10T08:25:58;2.30;;;0.70;;
12383;SDS011;6256;63.808;20.336;2023-06-10T08:28:24;0.50;;;0.50;;
12383;SDS011;6256;63.808;20.336;2023-06-10T08:30:49;1.63;;;0.80;;
12383;SDS011;6256;63.808;20.336;2023-06-10T08:33:15;0.90;;;0.70;;
12383;SDS011;6256;63.808;20.336;2023-06-10T08:35:41;0.60;;;0.60;;
12383;SDS011;6256;63.808;20.336;2023-06-10T08:38:06;1.70;;;0.70;;
12383;SDS011;6256;63.808;20.336;2023-06-10T08:40:33;0.70;;;0.70;;
12383;SDS011;6256;63.808;20.336;2023-06-10T08:43:06;0.40;;;0.40;;
12383;SDS011;6256;63.808;20.336;2023-06-10T08:45:34;1.47;;;0.80;;
12383;SDS011;6256;63.808;20.336;2023-06-10T08:48:01;0.87;;;0.50;;
12383;SDS011;6256;63.808;20.336;2023-06-10T08:50:32;0.60;;;0.60;;
12383;SDS011;6256;63.808;20.336;2023-06-10T08:53:04;0.87;;;0.60;;
12383;SDS011;6256;63.808;20.336;2023-06-10T08:55:38;0.53;;;0.50;;
12383;SDS011;6256;63.808;20.336;2023-06-10T08:58:06;0.63;;;0.57;;
12383;SDS011;6256;63.808;20.336;2023-06-10T09:00:32;0.50;;;0.50;;
12383;SDS011;6256;63.808;20.336;2023-06-10T09:02:59;0.65;;;0.60;;
12383;SDS011;6256;63.808;20.336;2023-06-10T09:05:27;0.60;;;0.60;;
12383;SDS011;6256;63.808;20.336;2023-06-10T09:07:53;2.50;;;0.70;;
12383;SDS011;6256;63.808;20.336;2023-06-10T09:10:22;0.70;;;0.70;;
12383;SDS011;6256;63.808;20.336;2023-06-10T09:12:48;1.17;;;0.63;;
12383;SDS011;6256;63.808;20.336;2023-06-10T09:15:13;0.50;;;0.50;;
12383;SDS011;6256;63.808;20.336;2023-06-10T09:17:39;1.92;;;0.60;;
12383;SDS011;6256;63.808;20.336;2023-06-10T09:20:06;1.05;;;0.70;;
12383;SDS011;6256;63.808;20.336;2023-06-10T09:22:33;1.08;;;0.63;;
12383;SDS011;6256;63.808;20.336;2023-06-10T09:25:06;1.08;;;0.80;;
12383;SDS011;6256;63.808;20.336;2023-06-10T09:27:45;1.10;;;0.57;;
12383;SDS011;6256;63.808;20.336;2023-06-10T09:30:31;0.60;;;0.60;;
12383;SDS011;6256;63.808;20.336;2023-06-10T09:32:59;0.75;;;0.60;;
12383;SDS011;6256;63.808;20.336;2023-06-10T09:35:27;0.40;;;0.40;;
12383;SDS011;6256;63.808;20.336;2023-06-10T09:37:57;0.88;;;0.80;;
12383;SDS011;6256;63.808;20.336;2023-06-10T09:40:24;0.45;;;0.45;;
12383;SDS011;6256;63.808;20.336;2023-06-10T09:42:57;0.70;;;0.70;;
12383;SDS011;6256;63.808;20.336;2023-06-10T09:45:28;0.68;;;0.68;;
12383;SDS011;6256;63.808;20.336;2023-06-10T09:47:56;0.45;;;0.45;;
12383;SDS011;6256;63.808;20.336;2023-06-10T09:50:22;0.57;;;0.57;;
12383;SDS011;6256;63.808;20.336;2023-06-10T09:52:48;0.70;;;0.70;;
12383;SDS011;6256;63.808;20.336;2023-06-10T09:55:16;0.40;;;0.40;;
12383;SDS011;6256;63.808;20.336;2023-06-10T09:57:42;1.13;;;0.70;;
12383;SDS011;6256;63.808;20.336;2023-06-10T10:00:12;1.10;;;0.60;;
12383;SDS011;6256;63.808;20.336;2023-06-10T10:02:51;0.63;;;0.60;;
12383;SDS011;6256;63.808;20.336;2023-06-10T10:05:19;1.95;;;0.60;;
12383;SDS011;6256;63.808;20.336;2023-06-10T10:07:46;0.47;;;0.47;;
12383;SDS011;6256;63.808;20.336;2023-06-10T10:10:13;1.95;;;0.70;;
12383;SDS011;6256;63.808;20.336;2023-06-10T10:12:40;1.73;;;0.60;;
12383;SDS011;6256;63.808;20.336;2023-06-10T10:15:08;0.40;;;0.40;;
12383;SDS011;6256;63.808;20.336;2023-06-10T10:17:40;0.90;;;0.80;;
12383;SDS011;6256;63.808;20.336;2023-06-10T10:20:14;0.50;;;0.50;;
12383;SDS011;6256;63.808;20.336;2023-06-10T10:22:44;0.82;;;0.60;;
12383;SDS011;6256;63.808;20.336;2023-06-10T10:25:13;0.60;;;0.60;;
12383;SDS011;6256;63.808;20.336;2023-06-10T10:27:52;0.40;;;0.40;;
12383;SDS011;6256;63.808;20.336;2023-06-10T10:30:22;0.55;;;0.55;;
12383;SDS011;6256;63.808;20.336;2023-06-10T10:33:06;0.45;;;0.45;;
12383;SDS011;6256;63.808;20.336;2023-06-10T10:35:36;0.75;;;0.50;;
12383;SDS011;6256;63.808;20.336;2023-06-10T10:38:03;1.52;;;0.57;;
12383;SDS011;6256;63.808;20.336;2023-06-10T10:40:30;0.47;;;0.47;;
12383;SDS011;6256;63.808;20.336;2023-06-10T10:42:57;0.50;;;0.50;;
12383;SDS011;6256;63.808;20.336;2023-06-10T10:45:24;1.73;;;0.50;;
12383;SDS011;6256;63.808;20.336;2023-06-10T10:47:52;0.60;;;0.60;;
12383;SDS011;6256;63.808;20.336;2023-06-10T10:50:21;0.50;;;0.50;;
12383;SDS011;6256;63.808;20.336;2023-06-10T10:52:54;0.65;;;0.60;;
12383;SDS011;6256;63.808;20.336;2023-06-10T10:55:24;0.63;;;0.63;;
12383;SDS011;6256;63.808;20.336;2023-06-10T10:57:58;0.60;;;0.60;;
12383;SDS011;6256;63.808;20.336;2023-06-10T11:00:28;2.22;;;0.70;;
12383;SDS011;6256;63.808;20.336;2023-06-10T11:02:57;1.65;;;0.63;;
12383;SDS011;6256;63.808;20.336;2023-06-10T11:08:09;0.40;;;0.40;;
12383;SDS011;6256;63.808;20.336;2023-06-10T11:10:36;0.60;;;0.60;;
12383;SDS011;6256;63.808;20.336;2023-06-10T11:13:08;0.90;;;0.55;;
12383;SDS011;6256;63.808;20.336;2023-06-10T11:15:45;0.32;;;0.32;;
12383;SDS011;6256;63.808;20.336;2023-06-10T11:18:24;0.88;;;0.50;;
12383;SDS011;6256;63.808;20.336;2023-06-10T11:26:10;0.60;;;0.60;;
12383;SDS011;6256;63.808;20.336;2023-06-10T11:28:36;0.60;;;0.60;;
12383;SDS011;6256;63.808;20.336;2023-06-10T11:31:06;1.02;;;0.70;;
12383;SDS011;6256;63.808;20.336;2023-06-10T11:33:32;0.90;;;0.52;;
12383;SDS011;6256;63.808;20.336;2023-06-10T11:35:58;0.52;;;0.52;;
12383;SDS011;6256;63.808;20.336;2023-06-10T11:38:24;0.82;;;0.70;;
12383;SDS011;6256;63.808;20.336;2023-06-10T11:40:51;0.93;;;0.60;;
12383;SDS011;6256;63.808;20.336;2023-06-10T11:43:17;0.50;;;0.50;;
12383;SDS011;6256;63.808;20.336;2023-06-10T11:45:44;0.50;;;0.50;;
12383;SDS011;6256;63.808;20.336;2023-06-10T11:48:10;0.60;;;0.60;;
12383;SDS011;6256;63.808;20.336;2023-06-10T11:50:36;1.58;;;0.70;;
12383;SDS011;6256;63.808;20.336;2023-06-10T11:53:02;0.40;;;0.40;;
12383;SDS011;6256;63.808;20.336;2023-06-10T11:58:16;0.88;;;0.70;;
12383;SDS011;6256;63.808;20.336;2023-06-10T12:00:49;1.90;;;0.60;;
12383;SDS011;6256;63.808;20.336;2023-06-10T12:03:18;0.60;;;0.60;;
12383;SDS011;6256;63.808;20.336;2023-06-10T12:05:57;0.50;;;0.50;;
12383;SDS011;6256;63.808;20.336;2023-06-10T12:08:24;0.50;;;0.50;;
12383;SDS011;6256;63.808;20.336;2023-06-10T12:10:49;1.25;;;0.63;;
12383;SDS011;6256;63.808;20.336;2023-06-10T12:13:15;0.40;;;0.40;;
12383;SDS011;6256;63.808;20.336;2023-06-10T12:15:43;0.70;;;0.70;;
12383;SDS011;6256;63.808;20.336;2023-06-10T12:18:15;0.50;;;0.50;;
12383;SDS011;6256;63.808;20.336;2023-06-10T12:20:45;1.38;;;0.70;;
12383;SDS011;6256;63.808;20.336;2023-06-10T12:23:11;0.73;;;0.70;;
12383;SDS011;6256;63.808;20.336;2023-06-10T12:25:37;0.90;;;0.43;;
12383;SDS011;6256;63.808;20.336;2023-06-10T12:28:03;0.50;;;0.50;;
12383;SDS011;6256;63.808;20.336;2023-06-10T12:30:29;1.70;;;0.60;;
12383;SDS011;6256;63.808;20.336;2023-06-10T12:32:56;0.63;;;0.52;;
12383;SDS011;6256;63.808;20.336;2023-06-10T12:35:23;0.75;;;0.63;;
12383;SDS011;6256;63.808;20.336;2023-06-10T12:40:32;1.73;;;0.57;;
12383;SDS011;6256;63.808;20.336;2023-06-10T12:43:02;0.73;;;0.60;;
12383;SDS011;6256;63.808;20.336;2023-06-10T12:45:32;0.57;;;0.57;;
12383;SDS011;6256;63.808;20.336;2023-06-10T12:48:11;0.30;;;0.30;;
12383;SDS011;6256;63.808;20.336;2023-06-10T12:50:42;0.35;;;0.35;;
12383;SDS011;6256;63.808;20.336;2023-06-10T12:53:09;0.45;;;0.45;;
12383;SDS011;6256;63.808;20.336;2023-06-10T12:55:36;0.43;;;0.43;;
12383;SDS011;6256;63.808;20.336;2023-06-10T12:58:02;1.65;;;0.68;;
12383;SDS011;6256;63.808;20.336;2023-06-10T13:00:29;0.35;;;0.35;;
12383;SDS011;6256;63.808;20.336;2023-06-10T13:02:59;1.92;;;0.50;;
12383;SDS011;6256;63.808;20.336;2023-06-10T13:05:27;0.60;;;0.50;;
12383;SDS011;6256;63.808;20.336;2023-06-10T13:07:53;0.95;;;0.73;;
12383;SDS011;6256;63.808;20.336;2023-06-10T13:10:20;1.60;;;0.70;;
12383;SDS011;6256;63.808;20.336;2023-06-10T13:12:46;0.63;;;0.60;;
12383;SDS011;6256;63.808;20.336;2023-06-10T13:15:12;1.45;;;0.60;;
12383;SDS011;6256;63.808;20.336;2023-06-10T13:17:39;0.60;;;0.60;;
12383;SDS011;6256;63.808;20.336;2023-06-10T13:20:05;0.63;;;0.60;;
12383;SDS011;6256;63.808;20.336;2023-06-10T13:22:33;0.47;;;0.47;;
12383;SDS011;6256;63.808;20.336;2023-06-10T13:25:00;1.35;;;0.60;;
12383;SDS011;6256;63.808;20.336;2023-06-10T13:27:28;1.52;;;0.70;;
12383;SDS011;6256;63.808;20.336;2023-06-10T13:29:54;3.10;;;0.88;;
12383;SDS011;6256;63.808;20.336;2023-06-10T13:32:19;1.25;;;0.50;;
12383;SDS011;6256;63.808;20.336;2023-06-10T13:34:46;0.88;;;0.55;;
12383;SDS011;6256;63.808;20.336;2023-06-10T13:37:12;1.10;;;0.47;;
12383;SDS011;6256;63.808;20.336;2023-06-10T13:39:38;0.50;;;0.50;;
12383;SDS011;6256;63.808;20.336;2023-06-10T13:42:04;0.60;;;0.60;;
12383;SDS011;6256;63.808;20.336;2023-06-10T13:44:32;0.57;;;0.57;;
12383;SDS011;6256;63.808;20.336;2023-06-10T13:47:01;1.95;;;0.70;;
12383;SDS011;6256;63.808;20.336;2023-06-10T13:49:27;0.45;;;0.45;;
12383;SDS011;6256;63.808;20.336;2023-06-10T13:51:53;0.77;;;0.50;;
12383;SDS011;6256;63.808;20.336;2023-06-10T13:54:18;0.52;;;0.52;;
12383;SDS011;6256;63.808;20.336;2023-06-10T13:56:44;0.60;;;0.60;;
12383;SDS011;6256;63.808;20.336;2023-06-10T13:59:09;2.28;;;0.73;;
12383;SDS011;6256;63.808;20.336;2023-06-10T14:01:35;0.70;;;0.50;;
12383;SDS011;6256;63.808;20.336;2023-06-10T14:04:01;1.65;;;0.60;;
12383;SDS011;6256;63.808;20.336;2023-06-10T14:06:27;0.50;;;0.50;;
12383;SDS011;6256;63.808;20.336;2023-06-10T14:08:53;1.23;;;0.40;;
12383;SDS011;6256;63.808;20.336;2023-06-10T14:11:22;0.50;;;0.50;;
12383;SDS011;6256;63.808;20.336;2023-06-10T14:13:47;0.88;;;0.47;;
12383;SDS011;6256;63.808;20.336;2023-06-10T14:16:13;1.33;;;0.50;;
12383;SDS011;6256;63.808;20.336;2023-06-10T14:18:38;0.40;;;0.40;;
12383;SDS011;6256;63.808;20.336;2023-06-10T14:21:04;1.25;;;0.73;;
12383;SDS011;6256;63.808;20.336;2023-06-10T14:23:30;5.15;;;0.70;;
12383;SDS011;6256;63.808;20.336;2023-06-10T14:25:55;1.20;;;0.60;;
12383;SDS011;6256;63.808;20.336;2023-06-10T14:28:21;1.35;;;0.70;;
12383;SDS011;6256;63.808;20.336;2023-06-10T14:30:48;0.57;;;0.57;;
12383;SDS011;6256;63.808;20.336;2023-06-10T14:33:14;0.43;;;0.43;;
12383;SDS011;6256;63.808;20.336;2023-06-10T14:35:40;0.63;;;0.63;;
12383;SDS011;6256;63.808;20.336;2023-06-10T14:38:07;0.40;;;0.40;;
12383;SDS011;6256;63.808;20.336;2023-06-10T14:40:33;0.68;;;0.43;;
12383;SDS011;6256;63.808;20.336;2023-06-10T14:42:59;0.50;;;0.50;;
12383;SDS011;6256;63.808;20.336;2023-06-10T14:45:26;3.70;;;0.75;;
12383;SDS011;6256;63.808;20.336;2023-06-10T14:47:52;1.75;;;0.75;;
12383;SDS011;6256;63.808;20.336;2023-06-10T14:50:17;1.10;;;0.60;;
12383;SDS011;6256;63.808;20.336;2023-06-10T14:52:43;0.45;;;0.45;;
12383;SDS011;6256;63.808;20.336;2023-06-10T14:55:09;1.15;;;0.60;;
12383;SDS011;6256;63.808;20.336;2023-06-10T14:57:34;1.02;;;0.65;;
12383;SDS011;6256;63.808;20.336;2023-06-10T15:00:00;0.45;;;0.40;;
12383;SDS011;6256;63.808;20.336;2023-06-10T15:02:26;0.85;;;0.70;;
12383;SDS011;6256;63.808;20.336;2023-06-10T15:04:51;0.85;;;0.85;;